Station: Mount Boyce  

  Atmospheric Gas Attenuation - ITU Rec 676-11   ----------------- dB/100km -----------------
Date Time Temp RH % AH g/m3 Dew Point Wind Direction Speed kph Gust kph Barometer mB Rainfall Since 9am 24GHz 47GHz 76GHz 122GHz 134GHz 241GHz
08/05 12:30 8.8 67 5.83 3 37 54 1013.1 0 13.9 22.9 31.1 81.2 67.8 230.6
08/05 12:20 8.6 68 5.85 3 35 41 1013.1 0 13.9 22.9 31.3 81.6 68.2 232.1
08/05 12:10 8.5 70 5.98 3.4 35 46 1013.1 0 14.2 23.2 31.8 83.1 70.0 238.2
08/05 12:00 8.7 72 6.23 3.9 37 61 1013.1 0 14.7 23.5 32.7 85.5 73.0 248.9
08/05 11:50 8 71 5.87 3.1 41 50 1013.1 0 14.0 23.1 31.6 82.4 69.0 234.8
08/05 11:40 7.7 72 5.84 3 35 44 1013.1 0 13.9 23.1 31.6 82.4 68.9 234.3
08/05 11:30 8.1 74 6.16 3.8 35 48 1013.1 0 14.6 23.5 32.7 85.4 72.7 247.6
08/05 11:20 7.2 75 5.89 3.1 33 44 1013.1 0 14.1 23.4 32.0 83.5 70.0 238.1
08/05 11:10 7.3 76 6.01 3.4 32 39 1013.1 0 14.3 23.5 32.4 84.7 71.5 243.2
08/05 11:00 7.2 75 5.89 3.1 35 54 1013.1 0 14.1 23.4 32.0 83.5 70.0 238.1
08/05 10:50 6.9 75 5.78 2.8 35 44 1013.1 0 13.8 23.3 31.7 82.7 68.8 233.9
08/05 10:40 6.7 75 5.7 2.6 39 48 1013.1 0 13.7 23.2 31.4 82.0 68.0 230.9
08/05 10:30 6.8 75 5.74 2.7 37 57 1013.1 0 13.8 23.2 31.5 82.3 68.4 232.4
08/05 10:20 6.4 76 5.67 2.5 35 43 1013.1 0 13.6 23.2 31.4 82.0 67.8 230.4
08/05 10:10 6.3 76 5.63 2.4 35 44 1013.1 0 13.5 23.2 31.3 81.7 67.4 228.9
08/05 10:00 6.2 78 5.74 2.7 32 48 1013.1 0 13.8 23.4 31.8 83.0 68.9 234.2
08/05 09:50 5.5 80 5.62 2.3 32 44 1013.1 0 13.5 23.4 31.6 82.4 68.0 230.7
08/05 09:40 5.4 81 5.66 2.4 30 43 1013.1 0 13.6 23.5 31.8 83.0 68.6 232.9
08/05 09:30 5 81 5.51 2 30 52 1013.1 0 13.3 23.3 31.3 81.8 67.0 227.1
08/05 09:20 5 82 5.58 2.2 32 52 1013.1 0 13.5 23.4 31.6 82.5 67.9 230.3
08/05 09:10 5 82 5.58 2.2 26 30 1013.1 0 13.5 23.4 31.6 82.5 67.9 230.3
08/05 09:00 4.8 82 5.5 2 28 43 1013.1 0 13.3 23.4 31.4 81.9 67.0 227.2
08/05 08:50 4.5 84 5.53 2 24 35 1013.1 0 13.4 23.5 31.6 82.5 67.7 229.5
08/05 08:40 4.2 84 5.42 1.7 30 41 1013.1 0 13.2 23.4 31.3 81.7 66.5 225.2
08/05 08:30 4.2 85 5.48 1.9 24 35 1013.1 0 13.3 23.5 31.5 82.3 67.3 228.0
08/05 08:20 3.9 85 5.37 1.6 28 33 1013.1 0 13.1 23.4 31.2 81.4 66.0 223.8
08/05 08:10 3.8 85 5.34 1.5 26 33 1013.1 0 13.0 23.4 31.1 81.2 65.7 222.6
08/05 08:00 3.8 85 5.34 1.5 26 35 1013.1 0 13.0 23.4 31.1 81.2 65.7 222.6
08/05 07:50 3.8 85 5.34 1.5 24 33 1013.1 0 13.0 23.4 31.1 81.2 65.7 222.6
08/05 07:40 3.6 85 5.27 1.3 30 43 1013.1 0 12.9 23.3 30.9 80.7 65.0 219.9
08/05 07:30 3.5 86 5.29 1.4 28 39 1013.1 0 12.9 23.4 31.0 81.0 65.3 221.1
08/05 07:20 3.5 86 5.29 1.4 24 30 1013.1 0 12.9 23.4 31.0 81.0 65.3 221.1
08/05 07:10 3.4 86 5.26 1.3 28 35 1013.1 0 12.8 23.3 31.0 80.8 65.0 220.0
08/05 07:00 3.2 86 5.19 1.1 22 33 1013.1 0 12.7 23.3 30.8 80.2 64.2 217.3
08/05 06:50 3.2 85 5.13 0.9 22 28 1013.1 0 12.6 23.2 30.5 79.6 63.4 214.5
08/05 06:40 3 86 5.12 0.9 26 33 1013.1 0 12.6 23.2 30.6 79.7 63.5 214.6
08/05 06:30 3 86 5.12 0.9 26 39 1013.1 0 12.6 23.2 30.6 79.7 63.5 214.6
08/05 06:20 2.9 86 5.08 0.8 28 35 1013.1 0 12.5 23.2 30.4 79.3 63.0 213.0
08/05 06:10 3 85 5.06 0.7 24 32 1013.1 0 12.4 23.1 30.3 79.0 62.7 211.8
08/05 06:00 2.9 85 5.02 0.6 22 33 1013.1 0 12.3 23.1 30.2 78.7 62.2 210.2
08/05 05:50 2.9 85 5.02 0.6 22 32 1013.1 0 12.3 23.1 30.2 78.7 62.2 210.2
08/05 05:40 2.8 85 4.99 0.5 30 37 1013.1 0 12.3 23.1 30.1 78.5 61.9 209.1
08/05 05:30 2.8 84 4.93 0.4 28 43 1013.1 0 12.2 23.0 29.9 77.8 61.1 206.3
08/05 05:20 2.8 83 4.87 0.2 30 35 1013.1 0 12.0 22.9 29.6 77.2 60.3 203.5
08/05 05:10 2.7 83 4.84 0.1 24 30 1013.1 0 12.0 22.8 29.5 77.0 60.0 202.4
08/05 05:00 2.6 84 4.87 0.2 28 41 1013.1 0 12.0 22.9 29.7 77.4 60.5 204.0
08/05 04:50 2.4 84 4.8 0 26 35 1013.1 0 11.9 22.8 29.5 76.8 59.7 201.3
08/05 04:40 2.3 85 4.83 0 30 37 1013.1 0 12.0 22.9 29.7 77.2 60.2 202.9
08/05 04:30 2.1 85 4.76 -0.2 24 37 1013.1 0 11.8 22.9 29.4 76.7 59.4 200.2
08/05 04:20 1.8 86 4.72 -0.3 24 32 1013.1 0 11.7 22.9 29.4 76.6 59.1 199.1
08/05 04:10 1.7 85 4.63 -0.5 20 28 1013.1 0 11.5 22.8 29.1 75.7 58.0 195.1
08/05 04:00 1.8 83 4.55 -0.8 24 44 1013.1 0 11.4 22.6 28.7 74.7 56.9 191.2
08/05 03:50 2 82 4.56 -0.7 28 41 1013.1 0 11.4 22.6 28.7 74.7 56.8 191.2
08/05 03:40 1.9 82 4.53 -0.8 26 32 1013.1 0 11.3 22.5 28.6 74.4 56.5 190.0
08/05 03:30 1.9 81 4.48 -1 26 46 1013.1 0 11.2 22.5 28.4 73.9 55.9 187.7
08/05 03:20 1.9 81 4.48 -1 26 32 1013.1 0 11.2 22.5 28.4 73.9 55.9 187.7
08/05 03:10 1.9 81 4.48 -1 20 32 1013.1 0 11.2 22.5 28.4 73.9 55.9 187.7
08/05 03:00 1.9 81 4.48 -1 28 44 1013.1 0 11.2 22.5 28.4 73.9 55.9 187.7
08/05 02:50 1.9 81 4.48 -1 26 33 1013.1 0 11.2 22.5 28.4 73.9 55.9 187.7
08/05 02:40 1.9 81 4.48 -1 22 24 1013.1 0 11.2 22.5 28.4 73.9 55.9 187.7
08/05 02:30 1.9 81 4.48 -1 26 43 1013.1 0 11.2 22.5 28.4 73.9 55.9 187.7
08/05 02:20 1.9 82 4.53 -0.8 26 35 1013.1 0 11.3 22.5 28.6 74.4 56.5 190.0
08/05 02:10 2 81 4.51 -0.9 26 32 1013.1 0 11.3 22.5 28.5 74.1 56.2 188.9
08/05 02:00 2.1 80 4.48 -1 28 46 1013.1 0 11.2 22.4 28.3 73.7 55.7 187.2
08/05 01:50 2.1 80 4.48 -1 30 41 1013.1 0 11.2 22.4 28.3 73.7 55.7 187.2
08/05 01:40 2.1 81 4.54 -0.8 32 43 1013.1 0 11.3 22.5 28.6 74.3 56.5 190.0
08/05 01:30 2 81 4.51 -0.9 24 41 1013.1 0 11.3 22.5 28.5 74.1 56.2 188.9
08/05 01:20 2.1 80 4.48 -1 24 33 1013.1 0 11.2 22.4 28.3 73.7 55.7 187.2
08/05 01:10 2 80 4.45 -1.1 28 39 1013.1 0 11.1 22.4 28.2 73.5 55.4 186.1
08/05 01:00 1.8 80 4.39 -1.3 30 46 1013.1 0 11.0 22.3 28.1 73.0 54.8 183.8
08/05 00:50 1.8 80 4.39 -1.3 37 46 1013.1 0 11.0 22.3 28.1 73.0 54.8 183.8
08/05 00:40 1.6 80 4.33 -1.5 28 33 1013.1 0 10.9 22.3 27.9 72.6 54.1 181.5
08/05 00:20 1.5 80 4.3 -1.6 24 35 1013.1 0 10.8 22.3 27.8 72.4 53.8 180.4
08/05 00:10 1.5 79 4.25 -1.7 37 48 1013.1 0 10.7 22.2 27.6 71.8 53.1 178.1
08/05 00:00 1.3 80 4.24 -1.8 30 44 1013.1 0 10.7 22.2 27.7 71.9 53.1 178.1
07/05 23:50 1.1 79 4.13 -2.1 30 39 1013.1 0 10.5 22.1 27.3 70.9 51.8 173.5
07/05 23:40 1.2 78 4.11 -2.2 28 39 1013.1 0 10.4 22.0 27.2 70.6 51.5 172.3
07/05 23:30 1.1 78 4.08 -2.3 28 39 1013.1 0 10.4 22.0 27.1 70.4 51.2 171.2
07/05 23:20 1.3 77 4.08 -2.3 35 46 1013.1 0 10.4 22.0 27.0 70.2 51.1 170.7
07/05 23:10 1.3 77 4.08 -2.3 32 39 1013.1 0 10.4 22.0 27.0 70.2 51.1 170.7
07/05 23:00 1.3 76 4.03 -2.5 30 41 1013.1 0 10.3 21.9 26.8 69.7 50.4 168.5
07/05 22:50 1.2 76 4 -2.5 32 41 1013.1 0 10.2 21.9 26.8 69.5 50.1 167.3
07/05 22:40 1.2 76 4 -2.5 28 35 1013.1 0 10.2 21.9 26.8 69.5 50.1 167.3
07/05 22:30 1.1 76 3.98 -2.6 24 35 1013.1 0 10.2 21.9 26.7 69.4 49.9 166.6
07/05 22:20 1.3 75 3.98 -2.6 28 33 1013.1 0 10.2 21.8 26.6 69.2 49.8 166.2
07/05 22:10 1.4 74 3.95 -2.7 26 32 1013.1 0 10.1 21.7 26.5 68.8 49.3 164.6
07/05 22:00 1.4 74 3.95 -2.7 28 39 1013.1 0 10.1 21.7 26.5 68.8 49.3 164.6
07/05 21:50 1.6 73 3.95 -2.7 28 33 1013.1 0 10.1 21.7 26.4 68.6 49.2 164.2
07/05 21:40 1.7 72 3.92 -2.8 30 39 1013.1 0 10.0 21.6 26.3 68.2 48.7 162.6
07/05 21:30 1.5 73 3.93 -2.8 28 43 1013.1 0 10.0 21.7 26.4 68.5 49.0 163.5
07/05 21:20 1.6 72 3.9 -2.9 28 32 1013.1 0 10.0 21.6 26.2 68.1 48.5 161.9
07/05 21:10 1.8 71 3.9 -2.9 28 39 1013.1 0 10.0 21.6 26.2 67.9 48.4 161.5
07/05 21:00 1.8 70 3.84 -3.1 30 44 1013.1 0 9.8 21.5 25.9 67.3 47.7 158.9
07/05 20:50 1.8 70 3.84 -3.1 24 35 1013.1 0 9.8 21.5 25.9 67.3 47.7 158.9
07/05 20:40 1.9 70 3.87 -3 30 35 1013.1 0 9.9 21.5 26.0 67.5 48.0 160.0
07/05 20:30 1.8 71 3.9 -2.9 28 52 1013.1 0 10.0 21.6 26.2 67.9 48.4 161.5
07/05 20:20 1.9 69 3.81 -3.2 33 44 1013.1 0 9.8 21.4 25.8 66.9 47.2 157.3
07/05 20:10 1.8 70 3.84 -3.1 33 43 1013.1 0 9.8 21.5 25.9 67.3 47.7 158.9
07/05 20:00 1.9 69 3.81 -3.2 37 57 1013.1 0 9.8 21.4 25.8 66.9 47.2 157.3
07/05 19:50 1.7 70 3.82 -3.2 30 43 1013.1 0 9.8 21.5 25.9 67.2 47.5 158.2

Last Refresh: 08-May-2026 12:09:21

Bureau of Meteorology